createdAt,value
2023-03-11T00:00:47.584Z,9.25
2023-03-11T00:03:18.546Z,3.40
2023-03-11T00:05:47.321Z,2.97
2023-03-11T00:08:20.506Z,6.53
2023-03-11T00:10:52.898Z,3.30
2023-03-11T00:13:21.216Z,2.47
2023-03-11T00:15:52.184Z,4.30
2023-03-11T00:18:19.959Z,6.82
2023-03-11T00:20:47.724Z,3.60
2023-03-11T00:23:18.729Z,6.25
2023-03-11T00:25:47.272Z,6.50
2023-03-11T00:28:16.111Z,3.90
2023-03-11T00:30:46.750Z,2.55
2023-03-11T00:33:16.457Z,5.53
2023-03-11T00:35:45.058Z,5.55
2023-03-11T00:38:17.744Z,5.47
2023-03-11T00:40:47.600Z,5.15
2023-03-11T00:43:16.827Z,8.07
2023-03-11T00:45:44.946Z,6.20
2023-03-11T00:48:15.066Z,7.43
2023-03-11T00:50:43.602Z,5.25
2023-03-11T00:53:12.304Z,5.55
2023-03-11T00:55:40.933Z,4.95
2023-03-11T00:58:12.630Z,7.03
2023-03-11T01:00:44.220Z,4.55
2023-03-11T01:03:14.576Z,4.50
2023-03-11T01:05:42.352Z,3.40
2023-03-11T01:08:10.219Z,6.35
2023-03-11T01:10:38.403Z,4.60
2023-03-11T01:13:06.235Z,4.90
2023-03-11T01:15:37.434Z,8.30
2023-03-11T01:18:06.766Z,6.07
2023-03-11T01:20:37.721Z,7.90
2023-03-11T01:23:07.564Z,9.80
2023-03-11T01:25:36.292Z,5.95
2023-03-11T01:28:04.353Z,4.65
2023-03-11T01:30:32.222Z,3.30
2023-03-11T01:32:59.986Z,3.78
2023-03-11T01:35:30.035Z,4.15
2023-03-11T01:37:59.002Z,4.13
2023-03-11T01:40:36.409Z,4.32
2023-03-11T01:43:55.614Z,9.73
2023-03-11T01:46:53.057Z,4.45
2023-03-11T01:49:24.790Z,6.95
2023-03-11T01:51:56.577Z,5.55
2023-03-11T01:54:31.158Z,2.80
2023-03-11T01:57:01.605Z,4.10
2023-03-11T01:59:36.802Z,2.72
2023-03-11T02:02:27.815Z,6.82
2023-03-11T02:04:59.992Z,4.05
2023-03-11T02:07:28.253Z,4.15
2023-03-11T02:09:57.134Z,3.40
2023-03-11T02:12:29.905Z,3.17
2023-03-11T02:14:57.772Z,3.47
2023-03-11T02:17:25.550Z,6.63
2023-03-11T02:20:06.363Z,4.70
2023-03-11T02:22:34.965Z,2.45
2023-03-11T02:25:43.128Z,11.38
2023-03-11T02:28:14.518Z,6.80
2023-03-11T02:30:44.973Z,5.85
2023-03-11T02:33:14.788Z,6.63
2023-03-11T02:35:45.545Z,3.47
2023-03-11T02:38:14.095Z,9.27
2023-03-11T02:40:59.072Z,4.25
2023-03-11T02:43:44.096Z,4.93
2023-03-11T02:46:15.783Z,4.53
2023-03-11T02:48:43.786Z,5.90
2023-03-11T02:51:13.062Z,8.80
2023-03-11T02:53:48.476Z,6.13
2023-03-11T02:56:16.654Z,4.68
2023-03-11T02:58:44.318Z,3.35
2023-03-11T03:01:12.141Z,4.20
2023-03-11T03:03:42.953Z,5.82
2023-03-11T03:06:12.591Z,6.53
2023-03-11T03:08:40.284Z,7.38
2023-03-11T03:11:08.036Z,6.03
2023-03-11T03:13:36.373Z,6.97
2023-03-11T03:16:04.807Z,4.15
2023-03-11T03:18:33.688Z,5.70
2023-03-11T03:21:01.808Z,6.07
2023-03-11T03:23:29.536Z,6.20
2023-03-11T03:25:57.914Z,5.97
2023-03-11T03:28:25.733Z,7.80
2023-03-11T03:30:53.841Z,6.45
2023-03-11T03:33:21.900Z,4.05
2023-03-11T03:35:49.733Z,4.63
2023-03-11T03:38:24.133Z,5.70
2023-03-11T03:40:53.382Z,5.60
2023-03-11T03:43:22.480Z,7.05
2023-03-11T03:46:02.352Z,7.70
2023-03-11T03:48:34.298Z,4.90
2023-03-11T03:51:10.230Z,5.53
2023-03-11T03:53:43.003Z,10.70
2023-03-11T03:56:14.846Z,6.75
2023-03-11T03:58:44.382Z,7.15
2023-03-11T04:01:12.948Z,4.30
2023-03-11T04:03:42.215Z,4.10
2023-03-11T04:06:20.477Z,4.13
2023-03-11T04:08:54.194Z,3.78
2023-03-11T04:11:27.786Z,8.02
2023-03-11T04:13:56.047Z,5.95
2023-03-11T04:16:25.012Z,5.60
2023-03-11T04:21:26.864Z,10.10
2023-03-11T04:23:56.119Z,8.35
2023-03-11T04:26:29.620Z,10.68
2023-03-11T04:28:57.492Z,12.32
2023-03-11T04:31:27.264Z,6.00
2023-03-11T04:33:55.977Z,5.82
2023-03-11T04:36:23.940Z,7.68
2023-03-11T04:38:51.884Z,13.13
2023-03-11T04:41:21.197Z,10.75
2023-03-11T04:43:50.094Z,13.23
2023-03-11T04:46:17.993Z,8.05
2023-03-11T04:48:45.786Z,7.85
2023-03-11T04:51:14.010Z,7.90
2023-03-11T04:53:41.882Z,5.65
2023-03-11T04:56:10.016Z,12.98
2023-03-11T04:58:39.508Z,13.05
2023-03-11T05:01:08.225Z,9.95
2023-03-11T05:03:35.943Z,8.40
2023-03-11T05:06:04.464Z,5.45
2023-03-11T05:08:32.344Z,13.95
2023-03-11T05:11:00.120Z,15.98
2023-03-11T05:13:28.288Z,7.05
2023-03-11T05:15:56.922Z,7.40
2023-03-11T05:18:24.626Z,6.15
2023-03-11T05:20:53.658Z,12.93
2023-03-11T05:23:25.566Z,7.30
2023-03-11T05:25:53.940Z,9.07
2023-03-11T05:28:21.837Z,13.82
2023-03-11T05:30:52.865Z,7.00
2023-03-11T05:33:20.864Z,7.97
2023-03-11T05:35:49.209Z,4.97
2023-03-11T05:38:16.959Z,6.53
2023-03-11T05:40:45.153Z,8.82
2023-03-11T05:43:12.849Z,7.75
2023-03-11T05:45:43.864Z,8.60
2023-03-11T05:48:11.947Z,13.55
2023-03-11T05:50:39.682Z,7.43
2023-03-11T05:53:07.789Z,8.45
2023-03-11T05:55:36.670Z,11.45
2023-03-11T05:58:05.250Z,7.78
2023-03-11T06:00:33.302Z,7.43
2023-03-11T06:03:03.997Z,6.95
2023-03-11T06:05:31.818Z,8.77
2023-03-11T06:08:00.144Z,10.68
2023-03-11T06:10:29.059Z,13.50
2023-03-11T06:12:56.804Z,12.63
2023-03-11T06:15:31.059Z,7.93
2023-03-11T06:17:59.862Z,10.25
2023-03-11T06:20:28.332Z,9.40
2023-03-11T06:22:56.941Z,10.70
2023-03-11T06:25:25.997Z,9.02
2023-03-11T06:27:55.177Z,12.07
2023-03-11T06:30:25.423Z,9.30
2023-03-11T06:33:08.732Z,10.15
2023-03-11T06:35:36.609Z,9.77
2023-03-11T06:38:04.651Z,9.35
2023-03-11T06:40:32.945Z,9.85
2023-03-11T06:43:00.841Z,7.25
2023-03-11T06:45:32.968Z,10.35
2023-03-11T06:48:01.045Z,13.32
2023-03-11T06:50:29.052Z,8.45
2023-03-11T06:53:00.624Z,9.25
2023-03-11T06:55:28.959Z,8.95
2023-03-11T06:57:56.734Z,10.18
2023-03-11T07:00:24.551Z,11.77
2023-03-11T07:02:57.057Z,12.75
2023-03-11T07:05:26.287Z,11.82
2023-03-11T07:07:59.756Z,7.80
2023-03-11T07:10:27.532Z,10.18
2023-03-11T07:12:55.176Z,7.43
2023-03-11T07:15:24.538Z,8.30
2023-03-11T07:17:52.372Z,9.52
2023-03-11T07:20:20.622Z,5.85
2023-03-11T07:22:48.244Z,8.82
2023-03-11T07:25:16.402Z,9.35
2023-03-11T07:27:44.042Z,10.80
2023-03-11T07:30:12.218Z,13.95
2023-03-11T07:32:40.408Z,11.65
2023-03-11T07:35:08.787Z,10.02
2023-03-11T07:37:36.426Z,12.02
2023-03-11T07:40:04.514Z,15.65
2023-03-11T07:42:33.915Z,16.75
2023-03-11T07:45:01.620Z,19.92
2023-03-11T07:47:29.989Z,20.17
2023-03-11T07:49:57.661Z,19.15
2023-03-11T07:52:25.316Z,19.33
2023-03-11T07:54:52.962Z,24.75
2023-03-11T07:57:20.668Z,21.02
2023-03-11T07:59:48.347Z,22.00
2023-03-11T08:02:16.142Z,13.48
2023-03-11T08:04:43.811Z,22.63
2023-03-11T08:07:11.588Z,15.35
2023-03-11T08:09:39.471Z,14.82
2023-03-11T08:12:07.904Z,14.68
2023-03-11T08:14:35.627Z,17.25
2023-03-11T08:17:04.487Z,16.25
2023-03-11T08:19:32.161Z,15.85
2023-03-11T08:22:03.983Z,21.70
2023-03-11T08:24:31.805Z,20.85
2023-03-11T08:26:59.553Z,22.38
2023-03-11T08:29:27.266Z,15.60
2023-03-11T08:31:54.958Z,23.13
2023-03-11T08:34:23.645Z,16.10
2023-03-11T08:36:51.632Z,19.13
2023-03-11T08:39:19.303Z,16.00
2023-03-11T08:41:46.994Z,19.35
2023-03-11T08:44:14.742Z,11.77
2023-03-11T08:46:42.393Z,18.08
2023-03-11T08:49:10.220Z,12.55
2023-03-11T08:51:38.021Z,9.95
2023-03-11T08:54:07.214Z,12.63
2023-03-11T08:56:34.961Z,10.48
2023-03-11T08:59:02.970Z,6.22
2023-03-11T09:01:31.095Z,11.65
2023-03-11T09:03:58.946Z,11.55
2023-03-11T09:06:26.790Z,18.80
2023-03-11T09:08:54.458Z,8.38
2023-03-11T09:11:22.804Z,6.90
2023-03-11T09:13:51.105Z,7.75
2023-03-11T09:16:22.579Z,9.35
2023-03-11T09:18:50.834Z,10.88
2023-03-11T09:21:18.715Z,9.00
2023-03-11T09:23:46.520Z,7.18
2023-03-11T09:26:14.736Z,3.47
2023-03-11T09:28:43.090Z,8.95
2023-03-11T09:31:11.149Z,11.30
2023-03-11T09:33:41.840Z,5.10
2023-03-11T09:36:14.960Z,13.82
2023-03-11T09:38:43.209Z,5.25
2023-03-11T09:41:42.368Z,7.40
2023-03-11T09:44:44.166Z,12.35
2023-03-11T09:48:12.454Z,11.85
2023-03-11T09:50:49.922Z,11.15
2023-03-11T09:53:33.236Z,5.95
2023-03-11T09:56:05.181Z,5.50
2023-03-11T09:58:47.462Z,5.53
2023-03-11T10:01:30.947Z,8.15
2023-03-11T10:04:12.500Z,10.57
2023-03-11T10:06:42.256Z,3.92
2023-03-11T10:09:13.011Z,5.68
2023-03-11T10:11:50.960Z,6.00
2023-03-11T10:15:09.503Z,9.25
2023-03-11T10:18:08.158Z,7.55
2023-03-11T10:20:38.574Z,6.70
2023-03-11T10:23:26.422Z,11.00
2023-03-11T10:26:13.427Z,10.52
2023-03-11T10:29:07.288Z,11.15
2023-03-11T10:32:00.905Z,7.53
2023-03-11T10:34:57.460Z,7.10
2023-03-11T10:40:31.787Z,8.48
2023-03-11T10:43:05.907Z,7.50
2023-03-11T10:45:41.582Z,4.72
2023-03-11T10:48:12.459Z,7.18
2023-03-11T10:50:51.029Z,6.75
2023-03-11T10:53:28.823Z,5.60
2023-03-11T10:55:59.174Z,5.93
2023-03-11T10:58:31.188Z,9.07
2023-03-11T11:01:16.048Z,2.70
2023-03-11T11:03:49.365Z,4.38
2023-03-11T11:06:23.980Z,7.80
2023-03-11T11:09:07.664Z,9.15
2023-03-11T11:11:36.515Z,2.53
2023-03-11T11:14:04.266Z,11.40
2023-03-11T11:16:34.312Z,5.78
2023-03-11T11:19:14.674Z,7.40
2023-03-11T11:21:52.456Z,8.82
2023-03-11T11:24:27.273Z,8.27
2023-03-11T11:27:06.397Z,5.60
2023-03-11T11:29:34.788Z,10.55
2023-03-11T11:32:26.007Z,4.28
2023-03-11T11:35:11.552Z,6.43
2023-03-11T11:37:47.673Z,4.72
2023-03-11T11:40:15.842Z,6.40
2023-03-11T11:43:06.673Z,2.70
2023-03-11T11:45:41.866Z,8.48
2023-03-11T11:48:25.633Z,4.10
2023-03-11T11:51:01.147Z,11.90
2023-03-11T11:53:43.865Z,9.15
2023-03-11T11:56:11.526Z,12.73
2023-03-11T11:58:41.316Z,6.43
2023-03-11T12:01:50.166Z,4.43
2023-03-11T12:04:26.986Z,4.55
2023-03-11T12:07:39.409Z,1.30
2023-03-11T12:10:23.395Z,5.32
2023-03-11T12:13:26.186Z,4.05
2023-03-11T12:16:06.791Z,4.05
2023-03-11T12:19:10.664Z,2.28
2023-03-11T12:21:57.073Z,10.15
2023-03-11T12:24:45.149Z,6.53
2023-03-11T12:28:21.961Z,7.78
2023-03-11T12:30:58.338Z,5.40
2023-03-11T12:33:44.588Z,3.83
2023-03-11T12:36:45.764Z,5.35
2023-03-11T12:39:25.549Z,13.05
2023-03-11T12:42:11.706Z,5.82
2023-03-11T12:47:08.061Z,2.13
2023-03-11T12:49:39.116Z,2.92
2023-03-11T12:52:13.278Z,8.52
2023-03-11T12:54:48.144Z,5.03
2023-03-11T12:57:18.920Z,2.67
2023-03-11T13:00:26.633Z,6.65
2023-03-11T13:03:37.402Z,4.22
2023-03-11T13:06:42.287Z,3.65
2023-03-11T13:09:16.506Z,7.47
2023-03-11T13:11:46.523Z,4.63
2023-03-11T13:14:34.415Z,11.80
2023-03-11T13:17:30.928Z,8.00
2023-03-11T13:19:59.454Z,4.50
2023-03-11T13:23:14.322Z,2.13
2023-03-11T13:25:54.423Z,2.58
2023-03-11T13:28:56.124Z,8.38
2023-03-11T13:32:00.785Z,8.43
2023-03-11T13:34:43.920Z,9.68
2023-03-11T13:37:44.402Z,5.47
2023-03-11T13:40:37.245Z,4.90
2023-03-11T13:43:26.244Z,4.72
2023-03-11T13:46:07.061Z,4.53
2023-03-11T13:48:42.254Z,4.10
2023-03-11T13:51:24.975Z,4.47
2023-03-11T13:54:00.755Z,3.28
2023-03-11T13:56:44.710Z,7.95
2023-03-11T13:59:17.888Z,7.68
2023-03-11T14:02:03.685Z,4.03
2023-03-11T14:04:37.546Z,6.68
2023-03-11T14:07:30.191Z,4.47
2023-03-11T14:10:28.081Z,5.28
2023-03-11T14:13:19.136Z,1.70
2023-03-11T14:16:03.710Z,6.63
2023-03-11T14:18:39.643Z,2.95
2023-03-11T14:21:17.421Z,6.95
2023-03-11T14:23:53.443Z,7.50
2023-03-11T14:26:34.093Z,5.85
2023-03-11T14:29:10.774Z,5.93
2023-03-11T14:31:41.264Z,5.70
2023-03-11T14:34:21.766Z,3.63
2023-03-11T14:36:57.070Z,4.88
2023-03-11T14:39:33.451Z,2.90
2023-03-11T14:42:35.013Z,3.38
2023-03-11T14:45:16.388Z,5.78
2023-03-11T14:48:04.198Z,4.93
2023-03-11T14:50:35.276Z,9.73
2023-03-11T14:53:16.854Z,5.30
2023-03-11T14:55:51.077Z,5.53
2023-03-11T14:58:43.414Z,3.35
2023-03-11T15:01:28.735Z,2.53
2023-03-11T15:04:13.308Z,1.90
2023-03-11T15:06:44.050Z,5.85
2023-03-11T15:09:22.211Z,4.00
2023-03-11T15:12:00.770Z,6.00
2023-03-11T15:14:48.048Z,4.13
2023-03-11T15:17:39.490Z,2.85
2023-03-11T15:20:35.007Z,3.03
2023-03-11T15:23:06.012Z,2.25
2023-03-11T15:25:38.203Z,4.43
2023-03-11T15:28:28.427Z,7.05
2023-03-11T15:31:21.140Z,3.95
2023-03-11T15:33:49.607Z,4.78
2023-03-11T15:36:35.527Z,4.28
2023-03-11T15:39:29.192Z,4.22
2023-03-11T15:42:07.442Z,7.05
2023-03-11T15:44:48.750Z,7.85
2023-03-11T15:47:24.100Z,7.85
2023-03-11T15:49:51.906Z,2.35
2023-03-11T15:52:20.345Z,4.60
2023-03-11T15:54:55.498Z,6.57
2023-03-11T15:57:27.612Z,3.72
2023-03-11T15:59:59.030Z,1.65
2023-03-11T16:02:30.395Z,5.85
2023-03-11T16:04:59.475Z,4.68
2023-03-11T16:07:39.046Z,2.50
2023-03-11T16:10:09.775Z,4.18
2023-03-11T16:12:37.865Z,6.55
2023-03-11T16:15:07.577Z,5.47
2023-03-11T16:17:48.998Z,5.28
2023-03-11T16:20:20.493Z,7.22
2023-03-11T16:22:50.766Z,4.95
2023-03-11T16:25:28.000Z,3.45
2023-03-11T16:27:57.005Z,5.00
2023-03-11T16:30:29.884Z,4.85
2023-03-11T16:32:57.798Z,6.85
2023-03-11T16:35:26.161Z,3.95
2023-03-11T16:37:54.479Z,7.82
2023-03-11T16:40:26.775Z,2.00
2023-03-11T16:43:10.169Z,6.60
2023-03-11T16:45:37.946Z,3.15
2023-03-11T16:48:06.557Z,1.55
2023-03-11T16:50:37.318Z,6.32
2023-03-11T16:53:05.291Z,4.68
2023-03-11T16:55:33.143Z,4.47
2023-03-11T16:58:00.895Z,4.75
2023-03-11T17:00:28.628Z,4.22
2023-03-11T17:02:56.381Z,2.40
2023-03-11T17:05:24.257Z,5.32
2023-03-11T17:08:04.221Z,4.80
2023-03-11T17:10:43.474Z,3.53
2023-03-11T17:13:13.644Z,5.55
2023-03-11T17:15:44.483Z,6.10
2023-03-11T17:18:13.501Z,2.25
2023-03-11T17:20:43.621Z,6.50
2023-03-11T17:23:11.463Z,5.63
2023-03-11T17:25:42.587Z,2.33
2023-03-11T17:28:10.573Z,2.97
2023-03-11T17:30:43.780Z,2.58
2023-03-11T17:33:11.951Z,3.97
2023-03-11T17:35:40.837Z,2.67
2023-03-11T17:38:08.811Z,6.65
2023-03-11T17:40:37.531Z,5.75
2023-03-11T17:43:05.594Z,5.05
2023-03-11T17:45:33.345Z,4.50
2023-03-11T17:48:01.044Z,3.95
2023-03-11T17:50:28.686Z,4.03
2023-03-11T17:52:56.578Z,6.07
2023-03-11T17:55:24.296Z,5.53
2023-03-11T17:57:52.845Z,5.55
2023-03-11T18:00:21.525Z,2.22
2023-03-11T18:02:51.331Z,3.15
2023-03-11T18:05:19.803Z,15.38
2023-03-11T18:07:47.598Z,2.20
2023-03-11T18:10:16.521Z,7.93
2023-03-11T18:12:46.664Z,6.75
2023-03-11T18:15:19.078Z,5.38
2023-03-11T18:17:47.861Z,4.20
2023-03-11T18:20:16.745Z,8.60
2023-03-11T18:22:46.714Z,2.33
2023-03-11T18:25:14.962Z,5.07
2023-03-11T18:27:43.488Z,1.75
2023-03-11T18:30:12.145Z,6.03
2023-03-11T18:32:40.296Z,6.78
2023-03-11T18:35:08.664Z,3.72
2023-03-11T18:37:36.425Z,5.30
2023-03-11T18:40:05.850Z,6.07
2023-03-11T18:42:33.754Z,9.07
2023-03-11T18:45:01.701Z,5.60
2023-03-11T18:47:29.429Z,4.88
2023-03-11T18:49:57.067Z,4.15
2023-03-11T18:52:25.230Z,6.95
2023-03-11T18:54:52.951Z,2.35
2023-03-11T18:57:20.606Z,3.92
2023-03-11T18:59:49.860Z,5.25
2023-03-11T19:02:17.892Z,6.22
2023-03-11T19:04:45.670Z,5.80
2023-03-11T19:07:13.438Z,7.65
2023-03-11T19:09:41.151Z,9.20
2023-03-11T19:12:09.186Z,14.73
2023-03-11T19:14:36.831Z,9.80
2023-03-11T19:17:04.573Z,6.75
2023-03-11T19:19:33.239Z,12.75
2023-03-11T19:22:01.700Z,9.23
2023-03-11T19:24:29.367Z,9.30
2023-03-11T19:26:57.383Z,8.00
2023-03-11T19:29:26.876Z,11.00
2023-03-11T19:31:54.730Z,11.00
2023-03-11T19:34:22.523Z,11.32
2023-03-11T19:36:50.273Z,6.40
2023-03-11T19:39:17.917Z,10.32
2023-03-11T19:41:45.638Z,9.35
2023-03-11T19:44:13.464Z,13.68
2023-03-11T19:46:41.172Z,5.07
2023-03-11T19:49:08.946Z,9.77
2023-03-11T19:51:49.255Z,10.52
2023-03-11T19:54:18.635Z,9.85
2023-03-11T19:56:46.543Z,11.65
2023-03-11T19:59:14.749Z,9.73
2023-03-11T20:01:42.871Z,11.45
2023-03-11T20:04:11.145Z,10.57
2023-03-11T20:06:39.079Z,7.18
2023-03-11T20:09:06.989Z,9.95
2023-03-11T20:11:40.993Z,9.13
2023-03-11T20:14:10.765Z,6.57
2023-03-11T20:16:39.413Z,8.43
2023-03-11T20:19:07.577Z,8.48
2023-03-11T20:21:39.286Z,11.88
2023-03-11T20:24:08.030Z,11.57
2023-03-11T20:26:36.893Z,12.43
2023-03-11T20:29:05.249Z,11.35
2023-03-11T20:31:33.656Z,7.93
2023-03-11T20:34:01.656Z,13.18
2023-03-11T20:36:33.170Z,8.77
2023-03-11T20:39:01.420Z,8.88
2023-03-11T20:41:34.851Z,8.75
2023-03-11T20:44:03.121Z,6.28
2023-03-11T20:46:31.398Z,12.38
2023-03-11T20:48:59.687Z,9.30
2023-03-11T20:51:27.480Z,12.90
2023-03-11T20:53:55.438Z,8.65
2023-03-11T20:56:26.013Z,11.10
2023-03-11T20:58:55.947Z,11.63
2023-03-11T21:01:32.362Z,15.57
2023-03-11T21:04:04.324Z,7.85
2023-03-11T21:06:35.752Z,7.07
2023-03-11T21:09:08.417Z,12.80
2023-03-11T21:11:36.249Z,9.95
2023-03-11T21:14:05.052Z,12.77
2023-03-11T21:16:33.402Z,9.50
2023-03-11T21:19:05.388Z,9.75
2023-03-11T21:21:33.342Z,8.88
2023-03-11T21:24:01.113Z,9.73
2023-03-11T21:26:29.014Z,11.13
2023-03-11T21:28:56.687Z,7.90
2023-03-11T21:31:29.020Z,6.35
2023-03-11T21:33:59.521Z,7.88
2023-03-11T21:36:28.945Z,10.40
2023-03-11T21:38:56.904Z,9.38
2023-03-11T21:41:27.317Z,11.80
2023-03-11T21:43:56.840Z,7.68
2023-03-11T21:46:30.753Z,5.82
2023-03-11T21:48:59.354Z,8.90
2023-03-11T21:51:27.949Z,10.07
2023-03-11T21:53:56.563Z,9.93
2023-03-11T21:56:24.533Z,8.70
2023-03-11T21:58:53.850Z,6.68
2023-03-11T22:01:21.960Z,8.50
2023-03-11T22:03:50.003Z,9.38
2023-03-11T22:06:17.788Z,11.88
2023-03-11T22:08:45.641Z,12.13
2023-03-11T22:11:18.949Z,7.95
2023-03-11T22:13:48.819Z,10.32
2023-03-11T22:16:17.424Z,7.68
2023-03-11T22:18:46.726Z,9.43
2023-03-11T22:21:15.715Z,10.38
2023-03-11T22:23:44.994Z,9.40
2023-03-11T22:26:13.022Z,8.00
2023-03-11T22:28:40.667Z,9.10
2023-03-11T22:31:12.000Z,9.75
2023-03-11T22:33:40.430Z,12.25
2023-03-11T22:36:09.481Z,10.95
2023-03-11T22:38:40.694Z,12.10
2023-03-11T22:41:09.642Z,6.70
2023-03-11T22:43:38.538Z,11.07
2023-03-11T22:46:07.226Z,8.20
2023-03-11T22:48:35.624Z,13.13
2023-03-11T22:51:03.623Z,11.68
2023-03-11T22:53:31.432Z,15.00
2023-03-11T22:55:59.137Z,11.10
2023-03-11T22:58:27.152Z,10.65
2023-03-11T23:00:54.834Z,8.80
2023-03-11T23:03:22.534Z,7.53
2023-03-11T23:05:50.264Z,9.50
2023-03-11T23:08:18.054Z,8.35
2023-03-11T23:10:47.731Z,11.88
2023-03-11T23:13:15.884Z,9.40
2023-03-11T23:15:46.013Z,5.10
2023-03-11T23:18:15.697Z,7.45
2023-03-11T23:20:44.389Z,6.95
2023-03-11T23:23:13.685Z,10.27
2023-03-11T23:25:41.978Z,11.88
2023-03-11T23:28:09.794Z,9.40
2023-03-11T23:30:39.425Z,5.88
2023-03-11T23:33:07.360Z,6.53
2023-03-11T23:35:40.709Z,7.95
2023-03-11T23:38:09.439Z,7.18
2023-03-11T23:40:40.306Z,11.57
2023-03-11T23:43:08.060Z,7.32
2023-03-11T23:45:35.974Z,5.82
2023-03-11T23:48:03.618Z,7.30
2023-03-11T23:50:31.367Z,11.63
2023-03-11T23:52:59.040Z,11.07
2023-03-11T23:55:26.744Z,7.28
2023-03-11T23:57:54.514Z,11.32
